Time;durP1;ratioP1;P1;durP2;ratioP2;P2;SDS_P1;SDS_P2;PMS_P1;PMS_P2;Temp;Humidity;BMP_temperature;BMP_pressure;BME280_temperature;BME280_humidity;BME280_pressure;Samples;Min_cycle;Max_cycle;Signal;HPM_P1;HPM_P2
2023/12/06 00:01:37;;;;;;;;;16.75;13.50;;;;;-146.67;60.31;75406.41;5061117;28;61919;-72
2023/12/06 00:04:02;;;;;;;;;20.00;14.25;;;;;-146.67;60.81;75414.38;5060425;28;61785;-72
2023/12/06 00:06:28;;;;;;;;;16.75;16.00;;;;;-146.67;60.50;75406.41;5060649;28;61906;-72
2023/12/06 00:08:53;;;;;;;;;19.75;14.75;;;;;-146.67;59.88;75390.44;5061627;28;61719;-72
2023/12/06 00:11:19;;;;;;;;;20.00;16.50;;;;;-146.67;58.84;75396.41;5061387;28;61837;-72
2023/12/06 00:13:45;;;;;;;;;13.00;13.00;;;;;-146.67;59.24;75394.41;5061884;28;62405;-72
2023/12/06 00:16:10;;;;;;;;;18.00;13.50;;;;;-146.67;58.82;75382.44;5061423;28;62045;-72
2023/12/06 00:18:35;;;;;;;;;25.50;16.50;;;;;-146.67;58.51;75380.44;5061898;28;61938;-72
2023/12/06 00:21:01;;;;;;;;;15.25;13.75;;;;;-146.67;57.66;75384.44;5061260;28;62010;-72
2023/12/06 00:23:26;;;;;;;;;10.50;8.00;;;;;-146.67;58.05;75372.44;5061629;28;61824;-72
2023/12/06 00:25:51;;;;;;;;;14.75;12.00;;;;;-146.67;57.46;75380.44;5061787;28;61792;-72
2023/12/06 00:28:17;;;;;;;;;12.75;11.25;;;;;-146.67;57.62;75388.44;5060253;28;62149;-72
2023/12/06 00:30:42;;;;;;;;;14.25;11.50;;;;;-146.67;57.67;75380.44;5060838;28;61849;-72
2023/12/06 00:47:25;;;;;;;;;16.50;12.00;;;;;-146.67;58.29;75448.34;5095375;27;62120;-72
2023/12/06 00:49:50;;;;;;;;;24.00;15.75;;;;;-146.67;57.56;75432.34;5079257;27;61771;-72
2023/12/06 00:52:16;;;;;;;;;16.25;12.75;;;;;-146.67;56.70;75442.34;5078883;28;61837;-72
2023/12/06 00:54:41;;;;;;;;;16.25;16.00;;;;;-146.67;56.59;75470.31;5073396;27;63788;-72
2023/12/06 00:57:06;;;;;;;;;16.00;13.25;;;;;-146.67;56.93;75472.28;5077478;27;62106;-72
2023/12/06 00:59:32;;;;;;;;;17.00;14.25;;;;;-146.67;56.83;75472.28;5078635;27;61843;-72
2023/12/06 01:01:57;;;;;;;;;17.25;12.25;;;;;-146.67;57.32;75480.28;5078714;27;61885;-73
2023/12/06 01:04:22;;;;;;;;;26.00;17.00;;;;;-146.67;56.83;75492.28;5076165;27;64785;-73
2023/12/06 01:06:48;;;;;;;;;15.25;11.00;;;;;-146.67;56.85;75494.25;5077210;27;61836;-72
2023/12/06 01:09:13;;;;;;;;;12.00;12.00;;;;;-146.67;57.01;75500.25;5078314;27;62169;-72
2023/12/06 01:11:38;;;;;;;;;15.25;14.00;;;;;-146.67;57.40;75508.25;5067449;27;61837;-72
2023/12/06 01:14:04;;;;;;;;;16.00;14.25;;;;;-146.67;57.07;75496.25;5067649;27;63819;-72
2023/12/06 01:16:29;;;;;;;;;11.25;11.25;;;;;-146.67;57.19;75522.22;5078883;27;61731;-72
2023/12/06 01:18:55;;;;;;;;;14.00;13.25;;;;;-146.67;56.90;75522.22;5077253;28;61894;-72
2023/12/06 01:21:20;;;;;;;;;9.00;8.00;;;;;-146.67;57.27;75530.22;5078321;27;61883;-72
2023/12/06 01:23:45;;;;;;;;;16.50;15.00;;;;;-146.67;57.09;75558.16;5077583;28;61923;-72
2023/12/06 01:26:11;;;;;;;;;16.00;13.50;;;;;-146.67;56.64;75566.16;5078669;27;61705;-72
2023/12/06 01:28:36;;;;;;;;;16.25;13.75;;;;;-146.67;57.18;75558.16;5090467;27;62563;-72
2023/12/06 01:31:01;;;;;;;;;17.25;15.75;;;;;-146.67;56.83;75566.16;5078950;27;61958;-72
2023/12/06 01:33:27;;;;;;;;;13.75;10.25;;;;;-146.67;56.92;75576.13;5078542;27;61703;-72
2023/12/06 01:35:52;;;;;;;;;14.25;12.00;;;;;-146.67;56.81;75576.13;5095139;27;61785;-72
2023/12/06 01:38:18;;;;;;;;;15.75;15.00;;;;;-146.67;56.95;75588.13;5089056;27;62318;-72
2023/12/06 01:40:44;;;;;;;;;15.25;12.50;;;;;-146.67;56.99;75594.13;5078449;27;61983;-72
2023/12/06 01:43:09;;;;;;;;;11.00;8.75;;;;;-146.67;57.62;75608.09;5077964;27;62521;-72
2023/12/06 01:45:35;;;;;;;;;16.25;11.00;;;;;-146.67;57.44;75612.09;5078046;27;61924;-72
2023/12/06 01:48:02;;;;;;;;;16.50;13.00;;;;;-146.67;57.39;75610.09;5067151;27;61850;-72
2023/12/06 01:50:28;;;;;;;;;14.00;13.00;;;;;-146.67;57.10;75614.09;5064060;28;62167;-72
2023/12/06 01:52:57;;;;;;;;;16.25;13.00;;;;;-146.67;57.54;75618.06;5061955;28;65009;-72
2023/12/06 01:55:23;;;;;;;;;13.00;12.00;;;;;-146.67;56.85;75626.06;5063225;28;61909;-72
2023/12/06 01:57:50;;;;;;;;;16.25;15.25;;;;;-146.67;57.43;75620.06;5064304;28;61722;-72
2023/12/06 02:00:16;;;;;;;;;11.00;10.75;;;;;-146.67;57.00;75604.09;5065018;28;62026;-72
2023/12/06 02:02:42;;;;;;;;;14.00;10.25;;;;;-146.67;56.95;75610.09;5063952;28;61845;-72
2023/12/06 02:05:08;;;;;;;;;15.75;12.00;;;;;-146.67;57.13;75612.09;5063600;28;61945;-72
2023/12/06 02:07:34;;;;;;;;;23.00;14.00;;;;;-146.67;57.01;75608.09;5064048;28;61955;-72
2023/12/06 02:10:00;;;;;;;;;18.50;13.75;;;;;-146.67;56.77;75600.09;5064545;28;61722;-72
2023/12/06 02:12:26;;;;;;;;;15.25;11.25;;;;;-146.67;56.60;75594.13;5064566;28;62094;-72
2023/12/06 02:14:52;;;;;;;;;16.00;11.00;;;;;-146.67;56.43;75596.09;5067788;27;61969;-72
2023/12/06 02:17:18;;;;;;;;;13.50;10.25;;;;;-146.67;56.69;75598.09;5064517;28;62167;-72
2023/12/06 02:19:45;;;;;;;;;14.00;11.50;;;;;-146.67;56.35;75602.09;5063695;28;61690;-72
2023/12/06 02:22:11;;;;;;;;;16.25;13.25;;;;;-146.67;56.04;75606.09;5058782;28;64927;-72
2023/12/06 02:24:39;;;;;;;;;20.50;19.00;;;;;-146.67;56.22;75628.06;5054327;28;62081;-72
2023/12/06 02:27:04;;;;;;;;;13.25;11.25;;;;;-146.67;56.65;75638.03;5064416;28;62044;-72
2023/12/06 02:29:30;;;;;;;;;19.25;15.50;;;;;-146.67;56.52;75628.06;5071455;28;61821;-73
2023/12/06 02:31:55;;;;;;;;;18.25;14.75;;;;;-146.67;56.63;75616.09;5062270;28;63550;-72
2023/12/06 02:34:25;;;;;;;;;18.00;15.00;;;;;-146.67;56.04;75622.06;5064899;28;61877;-72
2023/12/06 02:36:56;;;;;;;;;17.75;12.75;;;;;-146.67;56.58;75632.06;5072989;27;61794;-72
2023/12/06 02:39:22;;;;;;;;;18.00;14.25;;;;;-146.67;56.79;75624.06;5068779;28;62032;-72
2023/12/06 02:41:47;;;;;;;;;14.25;13.00;;;;;-146.67;56.53;75614.09;5075645;27;62772;-73
2023/12/06 02:44:12;;;;;;;;;17.75;17.25;;;;;-146.67;55.94;75604.09;5062884;28;61936;-72
2023/12/06 02:46:38;;;;;;;;;20.00;12.75;;;;;-146.67;55.51;75614.09;5062769;28;61793;-72
2023/12/06 02:49:03;;;;;;;;;17.00;15.50;;;;;-146.67;55.71;75620.06;5063277;28;61652;-72
2023/12/06 02:51:29;;;;;;;;;18.50;16.00;;;;;-146.67;55.53;75646.03;5063171;28;61858;-72
2023/12/06 02:53:54;;;;;;;;;18.25;14.50;;;;;-146.67;55.81;75654.03;5063195;28;61931;-71
2023/12/06 02:56:21;;;;;;;;;15.00;13.75;;;;;-146.67;56.12;75658.03;5063225;28;62106;-72
2023/12/06 02:58:46;;;;;;;;;18.75;16.25;;;;;-146.67;56.21;75660.00;5062357;28;61935;-72
2023/12/06 03:01:12;;;;;;;;;24.25;18.75;;;;;-146.67;56.19;75670.00;5061136;28;62761;-72
2023/12/06 03:03:37;;;;;;;;;27.00;17.75;;;;;-146.67;56.32;75658.03;5062393;28;61926;-73
2023/12/06 03:06:03;;;;;;;;;18.25;16.50;;;;;-146.67;56.63;75648.03;5062562;28;62049;-72
2023/12/06 03:08:28;;;;;;;;;21.75;15.75;;;;;-146.67;56.43;75640.03;5063474;28;62084;-72
2023/12/06 03:10:54;;;;;;;;;19.50;18.50;;;;;-146.67;55.86;75654.03;5060817;28;63503;-72
2023/12/06 03:13:19;;;;;;;;;22.25;14.75;;;;;-146.67;56.36;75674.00;5063537;28;61799;-72
2023/12/06 03:15:44;;;;;;;;;20.75;13.50;;;;;-146.67;56.10;75685.97;5062118;28;61947;-72
2023/12/06 03:18:10;;;;;;;;;16.50;15.25;;;;;-146.67;56.18;75691.97;5063157;28;62296;-72
2023/12/06 03:20:35;;;;;;;;;15.50;15.25;;;;;-146.67;56.30;75689.97;5062918;28;62041;-72
2023/12/06 03:23:01;;;;;;;;;14.25;11.75;;;;;-146.67;61.20;76115.38;5063063;28;62028;-72
2023/12/06 03:25:26;;;;;;;;;15.50;13.50;;;;;-146.67;76.55;76251.19;5063589;28;61768;-72
2023/12/06 03:27:52;;;;;;;;;19.25;19.25;;;;;-146.67;77.67;76241.19;5063665;28;61737;-72
2023/12/06 03:30:17;;;;;;;;;12.25;12.25;;;;;-146.67;86.13;76305.09;5062733;28;62916;-72
2023/12/06 03:32:43;;;;;;;;;14.25;14.00;;;;;-146.67;89.32;76307.09;5062974;28;61842;-72
2023/12/06 03:35:09;;;;;;;;;9.50;9.50;;;;;-146.67;91.07;76309.09;5062838;28;61956;-72
2023/12/06 03:37:34;;;;;;;;;20.00;14.00;;;;;-146.67;90.62;76321.09;5061568;28;61764;-72
2023/12/06 03:40:00;;;;;;;;;14.25;14.00;;;;;-146.67;91.74;76309.09;5062687;28;61730;-72
2023/12/06 03:42:25;;;;;;;;;17.75;13.50;;;;;-146.67;91.09;76305.09;5063198;28;62014;-72
2023/12/06 03:44:51;;;;;;;;;20.25;12.50;;;;;-146.67;95.59;76243.19;5063457;28;61802;-72
2023/12/06 03:47:16;;;;;;;;;17.75;17.50;;;;;-146.67;93.08;76315.09;5061343;28;62085;-72
2023/12/06 03:49:41;;;;;;;;;16.75;11.25;;;;;-146.67;93.09;76309.09;5062502;28;63128;-72
2023/12/06 03:52:08;;;;;;;;;15.00;12.50;;;;;-146.67;92.92;76303.09;5062554;28;61892;-72
2023/12/06 03:54:33;;;;;;;;;17.50;14.25;;;;;-146.67;92.23;76301.09;5063181;28;61750;-72
2023/12/06 03:56:59;;;;;;;;;23.75;18.50;;;;;-146.67;91.21;76299.13;5061670;28;61790;-72
2023/12/06 03:59:25;;;;;;;;;20.00;14.75;;;;;-146.67;95.35;76211.22;5062383;28;61838;-72
2023/12/06 04:01:50;;;;;;;;;18.75;14.25;;;;;-146.67;91.57;76311.09;5061127;28;61869;-72
2023/12/06 04:04:16;;;;;;;;;14.00;11.25;;;;;-146.67;92.65;76315.09;5062570;28;61711;-72
2023/12/06 04:06:41;;;;;;;;;16.25;16.25;;;;;-146.67;91.85;76299.13;5061434;28;61735;-72
2023/12/06 04:09:07;;;;;;;;;18.00;15.75;;;;;-146.67;90.25;76285.13;5060714;28;63917;-72
2023/12/06 04:11:33;;;;;;;;;16.50;14.50;;;;;-146.67;86.19;76277.16;5062336;28;61706;-72
2023/12/06 04:13:58;;;;;;;;;11.25;9.00;;;;;-146.67;89.69;76307.09;5061536;28;61758;-72
2023/12/06 04:16:23;;;;;;;;;20.25;16.25;;;;;-146.67;90.33;76245.19;5062235;28;61754;-72
2023/12/06 04:18:49;;;;;;;;;16.50;12.75;;;;;-146.67;89.42;76309.09;5061927;28;61771;-72
2023/12/06 04:21:14;;;;;;;;;16.00;12.50;;;;;-146.67;90.37;76315.09;5062461;28;61698;-72
2023/12/06 04:23:40;;;;;;;;;16.75;12.00;;;;;-146.67;90.30;76295.13;5061082;28;62375;-72
2023/12/06 04:26:05;;;;;;;;;17.50;13.00;;;;;-146.67;90.95;76289.13;5062118;28;62058;-72
2023/12/06 04:28:30;;;;;;;;;14.00;14.00;;;;;-146.67;90.48;76163.28;5066930;28;61870;-72
2023/12/06 04:30:56;;;;;;;;;12.75;11.00;;;;;-146.67;89.96;76305.09;5076605;27;62019;-72
2023/12/06 04:33:21;;;;;;;;;14.25;11.50;;;;;-146.67;90.35;76305.09;5062721;28;62014;-72
2023/12/06 04:35:46;;;;;;;;;19.75;14.75;;;;;-146.67;92.35;76169.28;5067720;28;61754;-72
2023/12/06 04:38:12;;;;;;;;;14.00;12.00;;;;;-146.67;88.92;76317.09;5056711;28;62919;-72
2023/12/06 04:40:37;;;;;;;;;16.75;11.25;;;;;-146.67;85.98;76319.09;5060532;28;61801;-72
2023/12/06 04:43:03;;;;;;;;;11.25;9.25;;;;;-146.67;87.65;76327.06;5062426;28;61906;-72
2023/12/06 04:45:28;;;;;;;;;12.00;11.50;;;;;-146.67;88.96;76269.16;5060310;28;62222;-71
2023/12/06 04:47:53;;;;;;;;;14.00;12.25;;;;;-146.67;88.40;76353.03;5061106;28;61838;-72
2023/12/06 04:50:19;;;;;;;;;11.00;9.75;;;;;-146.67;89.18;76355.03;5061880;28;61843;-72
2023/12/06 04:52:44;;;;;;;;;14.25;13.00;;;;;-146.67;89.33;76369.03;5075455;28;61905;-72
2023/12/06 04:55:10;;;;;;;;;14.00;11.50;;;;;-146.67;89.50;76385.00;5065409;27;62166;-72
2023/12/06 04:57:35;;;;;;;;;13.00;12.50;;;;;-146.67;89.66;76373.00;5061108;28;61903;-72
2023/12/06 05:00:00;;;;;;;;;15.00;10.00;;;;;-146.67;90.44;76373.00;5060243;28;61810;-71
2023/12/06 05:02:26;;;;;;;;;11.75;11.75;;;;;-146.67;89.89;76391.00;5061619;28;61827;-72
2023/12/06 05:04:51;;;;;;;;;14.25;11.50;;;;;-146.67;89.05;76402.97;5062534;28;61841;-71
2023/12/06 05:07:17;;;;;;;;;16.00;13.50;;;;;-146.67;90.48;76412.97;5060751;28;62146;-71
2023/12/06 05:09:42;;;;;;;;;14.00;14.00;;;;;-146.67;89.59;76416.97;5060757;28;62159;-71
2023/12/06 05:12:08;;;;;;;;;15.50;11.75;;;;;-146.67;88.17;76389.00;5061820;28;61916;-72
2023/12/06 05:14:33;;;;;;;;;13.50;12.25;;;;;-146.67;90.99;76416.97;5068574;28;61972;-72
2023/12/06 05:16:58;;;;;;;;;17.50;13.00;;;;;-146.67;89.32;76422.94;5059708;28;63614;-72
2023/12/06 05:19:24;;;;;;;;;17.00;14.00;;;;;-146.67;90.63;76434.94;5062019;28;61775;-71
2023/12/06 05:21:49;;;;;;;;;14.50;12.25;;;;;-146.67;91.92;76426.94;5060261;28;62326;-72
2023/12/06 05:24:15;;;;;;;;;14.25;11.50;;;;;-146.67;92.91;76400.97;5065062;28;61898;-72
2023/12/06 05:26:40;;;;;;;;;11.50;11.50;;;;;-146.67;89.10;76414.97;5053204;28;61848;-71
2023/12/06 05:29:05;;;;;;;;;16.25;10.25;;;;;-146.67;90.27;76428.94;5069371;27;61950;-72
2023/12/06 05:31:31;;;;;;;;;11.25;9.75;;;;;-146.67;91.29;76446.91;5066144;28;62014;-72
2023/12/06 05:33:56;;;;;;;;;19.00;12.25;;;;;-146.67;92.01;76442.94;5065410;28;61757;-71
2023/12/06 05:36:21;;;;;;;;;12.50;12.25;;;;;-146.67;92.25;76442.94;5069158;28;63421;-72
2023/12/06 05:38:47;;;;;;;;;17.50;14.00;;;;;-146.67;93.28;76452.91;5067454;27;62388;-72
2023/12/06 05:41:12;;;;;;;;;15.75;11.00;;;;;-146.67;89.46;76440.94;5063614;28;62015;-72
2023/12/06 05:43:37;;;;;;;;;14.75;11.25;;;;;-146.67;91.54;76442.94;5071188;27;61871;-72
2023/12/06 05:46:03;;;;;;;;;19.25;11.00;;;;;-146.67;91.91;76452.91;5084693;27;63175;-71
2023/12/06 05:48:29;;;;;;;;;15.50;11.25;;;;;-146.67;93.19;76454.91;5071455;27;61857;-71
2023/12/06 05:50:54;;;;;;;;;18.75;13.75;;;;;-146.67;92.05;76450.91;5049891;28;62323;-71
2023/12/06 05:53:19;;;;;;;;;14.00;11.25;;;;;-146.67;92.85;76460.91;5044744;28;61757;-71
2023/12/06 05:55:45;;;;;;;;;14.50;13.75;;;;;-146.67;92.72;76446.91;5043852;28;62142;-71
2023/12/06 05:58:19;;;;;;;;;23.00;10.00;;;;;-146.67;92.44;76456.91;5044275;28;61923;-72
2023/12/06 06:00:46;;;;;;;;;16.50;11.25;;;;;-146.67;92.18;76448.91;5068171;28;62084;-71
2023/12/06 06:03:11;;;;;;;;;13.75;10.25;;;;;-146.67;93.35;76440.94;5062858;28;62021;-71
2023/12/06 06:05:37;;;;;;;;;18.75;13.00;;;;;-146.67;92.53;76422.94;5077348;28;64542;-71
2023/12/06 06:08:02;;;;;;;;;10.75;10.75;;;;;-146.67;90.29;76434.94;5066383;28;61863;-71
2023/12/06 06:10:28;;;;;;;;;13.00;12.25;;;;;-146.67;91.53;76448.91;5074889;27;61989;-76
2023/12/06 06:12:53;;;;;;;;;17.25;15.00;;;;;-146.67;92.75;76448.91;5063524;28;61872;-75
2023/12/06 06:15:19;;;;;;;;;18.50;13.75;;;;;-146.67;91.60;76448.91;5063036;28;62783;-72
2023/12/06 06:17:45;;;;;;;;;23.25;15.00;;;;;-146.67;91.39;76470.88;5076467;27;61724;-72
2023/12/06 06:20:10;;;;;;;;;18.25;12.00;;;;;-146.67;92.77;76476.88;5084460;27;62064;-75
2023/12/06 06:22:36;;;;;;;;;13.25;10.50;;;;;-146.67;92.41;76474.88;5065435;27;61946;-75
2023/12/06 06:25:02;;;;;;;;;16.25;15.00;;;;;-146.67;92.80;76480.88;5062139;28;65088;-75
2023/12/06 06:27:27;;;;;;;;;10.50;9.75;;;;;-146.67;93.09;76490.88;5063496;28;62046;-76
2023/12/06 06:29:52;;;;;;;;;15.00;10.00;;;;;-146.67;93.08;76492.88;5064339;28;61879;-75
2023/12/06 06:32:18;;;;;;;;;9.75;9.75;;;;;-146.67;92.71;76498.84;5063745;28;62101;-75
2023/12/06 06:34:43;;;;;;;;;11.75;11.75;;;;;-146.67;93.46;76502.84;5061779;28;63529;-75
2023/12/06 06:37:09;;;;;;;;;21.00;12.00;;;;;-146.67;92.20;76500.84;5079520;28;62038;-79
2023/12/06 06:39:34;;;;;;;;;13.75;10.00;;;;;-146.67;93.40;76500.84;5063545;28;62311;-76
2023/12/06 06:42:00;;;;;;;;;18.25;13.25;;;;;-146.67;92.88;76488.88;5071722;28;62087;-74
2023/12/06 06:44:25;;;;;;;;;20.25;13.50;;;;;-146.67;91.93;76492.88;5062329;28;61780;-74
2023/12/06 06:46:51;;;;;;;;;12.00;12.00;;;;;-146.67;92.95;76504.84;5061713;28;62004;-74
2023/12/06 06:49:16;;;;;;;;;20.50;15.50;;;;;-146.67;92.18;76498.84;5063377;28;61926;-74
2023/12/06 06:51:41;;;;;;;;;16.00;12.75;;;;;-146.67;90.79;76510.84;5061285;28;62048;-73
2023/12/06 06:54:07;;;;;;;;;16.00;11.50;;;;;-146.67;92.51;76512.84;5069007;28;63624;-74
2023/12/06 06:56:35;;;;;;;;;15.75;11.50;;;;;-146.67;91.44;76518.81;5066407;28;61958;-74
2023/12/06 06:59:04;;;;;;;;;21.00;11.25;;;;;-146.67;91.92;76512.84;5070060;27;61974;-74
2023/12/06 07:01:30;;;;;;;;;14.50;13.00;;;;;-146.67;92.14;76504.84;5069659;28;62113;-74
2023/12/06 07:03:55;;;;;;;;;17.75;14.25;;;;;-146.67;90.65;76498.84;5066360;27;61986;-74
2023/12/06 07:06:21;;;;;;;;;12.00;11.25;;;;;-146.67;90.94;76508.84;5061405;28;61871;-74
2023/12/06 07:08:47;;;;;;;;;13.00;12.50;;;;;-146.67;91.17;76518.81;5062746;28;62018;-74
2023/12/06 07:11:12;;;;;;;;;17.00;15.00;;;;;-146.67;89.77;76500.84;5063738;28;61923;-74
2023/12/06 07:13:38;;;;;;;;;18.50;14.75;;;;;-146.67;91.21;76540.81;5061085;28;63482;-80
2023/12/06 07:16:04;;;;;;;;;23.75;17.50;;;;;-146.67;89.79;76550.78;5069113;28;61713;-74
2023/12/06 07:18:31;;;;;;;;;25.25;20.50;;;;;-146.67;90.27;76568.75;5064708;28;61903;-74
2023/12/06 07:20:57;;;;;;;;;24.50;20.00;;;;;-146.67;90.95;76568.75;5066666;28;61940;-74
2023/12/06 07:23:23;;;;;;;;;22.75;18.00;;;;;-146.67;90.60;76562.78;5061804;28;61817;-74
2023/12/06 07:25:49;;;;;;;;;17.75;16.75;;;;;-146.67;91.44;76558.78;5058888;28;61943;-74
2023/12/06 07:28:15;;;;;;;;;13.25;13.25;;;;;-146.67;91.28;76556.78;5070237;27;61838;-74
2023/12/06 07:30:40;;;;;;;;;18.50;18.00;;;;;-146.67;90.94;76560.78;5068995;27;61932;-74
2023/12/06 07:33:09;;;;;;;;;19.75;15.75;;;;;-146.67;91.17;76560.78;5066970;27;62731;-74
2023/12/06 07:35:36;;;;;;;;;24.50;19.50;;;;;-146.67;91.41;76564.78;5073863;28;62114;-74
2023/12/06 07:38:01;;;;;;;;;35.00;20.25;;;;;-146.67;91.19;76570.75;5060327;28;62272;-74
2023/12/06 07:40:27;;;;;;;;;17.75;13.25;;;;;-146.67;91.18;76570.75;5061383;28;61788;-74
2023/12/06 07:42:53;;;;;;;;;16.75;16.75;;;;;-146.67;90.72;76568.75;5060635;28;63713;-74
2023/12/06 07:45:18;;;;;;;;;24.00;15.75;;;;;-146.67;89.63;76564.78;5060912;28;61969;-74
2023/12/06 07:47:44;;;;;;;;;18.50;15.00;;;;;-146.67;90.16;76574.75;5063039;28;61818;-74
2023/12/06 07:50:09;;;;;;;;;21.25;17.75;;;;;-146.67;90.55;76576.75;5061760;28;62241;-74
2023/12/06 07:52:36;;;;;;;;;28.00;18.00;;;;;-146.67;89.24;76588.75;5059565;28;63443;-74
2023/12/06 07:55:06;;;;;;;;;15.25;12.50;;;;;-146.67;90.56;76584.75;5062844;28;61818;-74
2023/12/06 07:57:33;;;;;;;;;10.75;10.75;;;;;-146.67;90.57;76582.75;5062566;28;61905;-74
2023/12/06 07:59:58;;;;;;;;;15.25;10.75;;;;;-146.67;90.14;76592.72;5061840;28;62184;-74
2023/12/06 08:02:25;;;;;;;;;18.75;13.75;;;;;-146.67;90.97;76618.69;5077482;28;64613;-74
2023/12/06 08:04:50;;;;;;;;;13.00;13.00;;;;;-146.67;91.74;76604.72;5082820;27;61787;-74
2023/12/06 08:07:16;;;;;;;;;20.50;15.75;;;;;-146.67;91.07;76608.72;5082228;27;61700;-74
2023/12/06 08:09:41;;;;;;;;;17.00;15.25;;;;;-146.67;90.93;76588.75;5061422;28;61770;-74
2023/12/06 08:12:07;;;;;;;;;17.50;11.00;;;;;-146.67;73.45;76458.91;5076691;28;61825;-74
2023/12/06 08:14:34;;;;;;;;;14.25;13.00;;;;;-146.67;85.02;76564.78;5076451;27;61859;-74
2023/12/06 08:16:59;;;;;;;;;14.75;12.00;;;;;-146.67;86.95;76580.75;5074885;28;61775;-74
2023/12/06 08:19:24;;;;;;;;;18.25;12.00;;;;;-146.67;88.79;76606.72;5083390;27;61757;-74
2023/12/06 08:21:50;;;;;;;;;16.00;15.00;;;;;-146.67;90.10;76612.72;5080365;27;63415;-74
2023/12/06 08:24:15;;;;;;;;;21.75;15.25;;;;;-146.67;89.68;76612.72;5082753;27;61921;-74
2023/12/06 08:26:42;;;;;;;;;21.25;19.00;;;;;-146.67;90.75;76604.72;5081619;28;61777;-74
2023/12/06 08:29:08;;;;;;;;;22.00;16.75;;;;;-146.67;89.85;76590.75;5082920;27;62056;-74
2023/12/06 08:31:33;;;;;;;;;17.75;16.75;;;;;-146.67;90.18;76584.75;5082244;28;62117;-74
2023/12/06 08:33:59;;;;;;;;;18.00;11.75;;;;;-146.67;90.07;76588.75;5081168;28;62012;-74
2023/12/06 08:36:24;;;;;;;;;10.75;10.50;;;;;-146.67;90.22;76584.75;5080433;28;61837;-74
2023/12/06 08:38:50;;;;;;;;;18.50;15.75;;;;;-146.67;88.37;76564.78;5067290;27;62094;-74
2023/12/06 08:41:15;;;;;;;;;17.25;13.75;;;;;-146.67;89.01;76576.75;5061917;28;63170;-74
2023/12/06 08:43:41;;;;;;;;;22.00;15.25;;;;;-146.67;89.11;76586.75;5062305;28;61900;-74
2023/12/06 08:46:07;;;;;;;;;17.00;13.00;;;;;-146.67;89.02;76584.75;5061980;28;61947;-74
2023/12/06 08:48:33;;;;;;;;;21.25;14.50;;;;;-146.67;88.81;76576.75;5062433;28;61895;-74
2023/12/06 08:50:59;;;;;;;;;24.00;19.25;;;;;-146.67;87.62;76564.78;5059367;28;63494;-74
2023/12/06 08:53:24;;;;;;;;;26.50;22.75;;;;;-146.67;87.64;76560.78;5068855;28;62300;-75
2023/12/06 08:55:50;;;;;;;;;25.50;20.25;;;;;-146.67;87.67;76546.78;5042864;28;62036;-74
2023/12/06 08:58:16;;;;;;;;;25.50;25.25;;;;;-146.67;87.70;76542.78;5052840;28;61958;-75
2023/12/06 09:00:41;;;;;;;;;23.00;18.50;;;;;-146.67;86.13;76552.78;5059201;28;62360;-75
2023/12/06 09:03:07;;;;;;;;;24.25;15.75;;;;;-146.67;86.76;76554.78;5073928;27;61978;-75
2023/12/06 09:05:34;;;;;;;;;18.75;13.75;;;;;-146.67;87.42;76564.78;5062704;28;61778;-75
2023/12/06 09:08:00;;;;;;;;;21.75;19.50;;;;;-146.67;87.21;76562.78;5063238;28;62037;-75
2023/12/06 09:10:26;;;;;;;;;21.00;19.00;;;;;-146.67;87.11;76568.75;5064142;28;61961;-75
2023/12/06 09:12:52;;;;;;;;;17.00;17.00;;;;;-146.67;86.13;76562.78;5070347;27;62186;-75
2023/12/06 09:15:17;;;;;;;;;18.75;17.25;;;;;-146.67;86.92;76558.78;5071789;28;61868;-74
2023/12/06 09:17:43;;;;;;;;;16.50;13.75;;;;;-146.67;87.24;76556.78;5067178;28;62085;-75
2023/12/06 09:20:09;;;;;;;;;18.00;15.25;;;;;-146.67;88.18;76560.78;5061523;28;63707;-75
2023/12/06 09:22:35;;;;;;;;;21.25;17.00;;;;;-146.67;87.88;76556.78;5064671;28;61919;-75
2023/12/06 09:25:04;;;;;;;;;10.50;8.00;;;;;-146.67;87.49;76552.78;5066356;28;62046;-74
2023/12/06 09:27:31;;;;;;;;;20.00;19.25;;;;;-146.67;87.13;76532.81;5066690;28;62241;-75
2023/12/06 09:29:56;;;;;;;;;24.00;17.25;;;;;-146.67;86.79;76544.78;5075446;28;64131;-75
2023/12/06 09:32:21;;;;;;;;;17.75;15.75;;;;;-146.67;87.06;76544.78;5064625;28;61909;-74
2023/12/06 09:34:47;;;;;;;;;17.50;16.75;;;;;-146.67;86.68;76520.81;5065894;28;61858;-74
2023/12/06 09:37:12;;;;;;;;;19.25;17.50;;;;;-146.67;86.33;76534.81;5063923;28;62153;-75
2023/12/06 09:39:37;;;;;;;;;22.75;18.75;;;;;-146.67;86.33;76548.78;5063232;28;62136;-75
2023/12/06 09:42:03;;;;;;;;;27.00;20.00;;;;;-146.67;87.32;76536.81;5063785;28;61803;-75
2023/12/06 09:44:30;;;;;;;;;26.25;21.75;;;;;-146.67;85.05;76512.84;5064827;28;61933;-74
2023/12/06 09:46:59;;;;;;;;;18.25;16.00;;;;;-146.67;84.68;76536.81;5077381;27;61819;-75
2023/12/06 09:49:24;;;;;;;;;22.75;17.50;;;;;-146.67;85.79;76532.81;5065537;28;64550;-75
2023/12/06 09:51:50;;;;;;;;;23.00;19.75;;;;;-146.67;84.79;76540.81;5062277;28;61737;-74
2023/12/06 09:54:15;;;;;;;;;26.50;23.25;;;;;-146.67;86.38;76532.81;5070918;28;61964;-75
2023/12/06 09:56:40;;;;;;;;;19.50;18.00;;;;;-146.67;85.93;76502.84;5061978;28;61906;-75
2023/12/06 09:59:09;;;;;;;;;24.25;18.50;;;;;-146.67;84.50;76484.88;5062879;28;64833;-75
2023/12/06 10:01:34;;;;;;;;;29.75;25.50;;;;;-146.67;83.04;76474.88;5071448;27;61926;-75
2023/12/06 10:04:03;;;;;;;;;21.75;20.00;;;;;-146.67;83.55;76460.91;5066380;28;61861;-74
2023/12/06 10:06:28;;;;;;;;;25.50;22.25;;;;;-146.67;82.96;76456.91;5063443;28;61857;-75
2023/12/06 10:08:54;;;;;;;;;32.50;24.50;;;;;-146.67;83.24;76452.91;5063106;28;63013;-74
2023/12/06 10:11:22;;;;;;;;;27.50;19.25;;;;;-146.67;82.24;76448.91;5063914;28;62122;-74
2023/12/06 10:13:48;;;;;;;;;23.75;22.75;;;;;-146.67;82.01;76452.91;5066608;28;61988;-74
2023/12/06 10:16:14;;;;;;;;;23.25;21.25;;;;;-146.67;81.21;76460.91;5074814;27;62143;-75
2023/12/06 10:18:40;;;;;;;;;28.00;21.50;;;;;-146.67;79.10;76420.94;5068080;28;61945;-75
2023/12/06 10:21:09;;;;;;;;;18.50;13.75;;;;;-146.67;81.34;76440.94;5066455;28;62004;-75
2023/12/06 10:23:35;;;;;;;;;24.50;20.50;;;;;-146.67;81.48;76420.94;5074375;28;61930;-75
2023/12/06 10:26:01;;;;;;;;;23.00;20.25;;;;;-146.67;80.95;76406.97;5074624;27;62248;-75
2023/12/06 10:28:26;;;;;;;;;22.50;19.75;;;;;-146.67;78.92;76400.97;5078229;27;62674;-74
2023/12/06 10:31:05;;;;;;;;;26.75;20.00;;;;;-146.67;79.46;76404.97;5074571;28;61920;-75
2023/12/06 10:33:31;;;;;;;;;19.25;19.00;;;;;-146.67;78.96;76408.97;5066788;27;61807;-74
2023/12/06 10:35:59;;;;;;;;;24.75;22.75;;;;;-146.67;78.25;76402.97;5073684;27;61910;-75
2023/12/06 10:38:27;;;;;;;;;20.25;15.75;;;;;-146.67;78.62;76402.97;5076659;27;62129;-75
2023/12/06 10:40:55;;;;;;;;;19.25;18.00;;;;;-146.67;77.88;76396.97;5068708;28;61866;-75
2023/12/06 10:43:22;;;;;;;;;22.50;19.00;;;;;-146.67;77.66;76418.97;5061801;28;61978;-75
2023/12/06 10:45:50;;;;;;;;;26.00;20.75;;;;;-146.67;77.62;76410.97;5063421;28;62054;-76
2023/12/06 10:48:17;;;;;;;;;24.25;17.00;;;;;-146.67;77.45;76416.97;5061180;28;64568;-76
2023/12/06 10:50:43;;;;;;;;;26.50;23.00;;;;;-146.67;75.79;76410.97;5058604;28;61873;-75
2023/12/06 10:53:14;;;;;;;;;22.00;22.00;;;;;-146.67;76.54;76402.97;5060463;28;61852;-75
2023/12/06 10:55:40;;;;;;;;;30.75;24.50;;;;;-146.67;76.26;76393.00;5072290;28;61803;-76
2023/12/06 10:58:07;;;;;;;;;32.00;28.25;;;;;-146.67;76.02;76381.00;5059619;28;61848;-76
2023/12/06 11:00:33;;;;;;;;;25.00;22.50;;;;;-146.67;75.50;76367.03;5064610;28;61768;-76
2023/12/06 11:02:59;;;;;;;;;34.00;22.25;;;;;-146.67;75.44;76345.06;5082671;27;61770;-76
2023/12/06 11:05:27;;;;;;;;;22.25;20.25;;;;;-146.67;74.27;76329.06;5064186;27;62462;-76
2023/12/06 11:08:24;;;;;;;;;26.00;19.25;;;;;-146.67;72.89;76323.09;5060044;28;65244;-76
2023/12/06 11:11:27;;;;;;;;;28.25;18.00;;;;;-146.67;71.36;76335.06;5066887;28;61937;-76